sensor_id;sensor_type;location;lat;lon;timestamp;P1;durP1;ratioP1;P2;durP2;ratioP2
65393;SDS011;52002;49.760;6.512;2023-12-20T00:01:01;3.10;;;2.00;;
65393;SDS011;52002;49.760;6.512;2023-12-20T00:03:27;5.70;;;3.30;;
65393;SDS011;52002;49.760;6.512;2023-12-20T00:05:52;2.10;;;1.20;;
65393;SDS011;52002;49.760;6.512;2023-12-20T00:08:18;1.50;;;1.00;;
65393;SDS011;52002;49.760;6.512;2023-12-20T00:10:43;1.00;;;0.90;;
65393;SDS011;52002;49.760;6.512;2023-12-20T00:13:09;2.00;;;1.30;;
65393;SDS011;52002;49.760;6.512;2023-12-20T00:15:35;1.50;;;1.20;;
65393;SDS011;52002;49.760;6.512;2023-12-20T00:18:00;5.50;;;1.70;;
65393;SDS011;52002;49.760;6.512;2023-12-20T00:20:26;1.60;;;1.20;;
65393;SDS011;52002;49.760;6.512;2023-12-20T00:22:52;1.90;;;1.50;;
65393;SDS011;52002;49.760;6.512;2023-12-20T00:25:19;3.40;;;1.70;;
65393;SDS011;52002;49.760;6.512;2023-12-20T00:27:45;1.40;;;1.10;;
65393;SDS011;52002;49.760;6.512;2023-12-20T00:30:10;1.00;;;0.90;;
65393;SDS011;52002;49.760;6.512;2023-12-20T00:32:36;3.90;;;1.10;;
65393;SDS011;52002;49.760;6.512;2023-12-20T00:35:01;4.30;;;1.40;;
65393;SDS011;52002;49.760;6.512;2023-12-20T00:37:27;2.70;;;1.90;;
65393;SDS011;52002;49.760;6.512;2023-12-20T00:39:52;1.50;;;1.00;;
65393;SDS011;52002;49.760;6.512;2023-12-20T00:42:18;1.20;;;0.90;;
65393;SDS011;52002;49.760;6.512;2023-12-20T00:44:43;2.10;;;1.10;;
65393;SDS011;52002;49.760;6.512;2023-12-20T00:47:09;1.20;;;1.00;;
65393;SDS011;52002;49.760;6.512;2023-12-20T00:49:34;1.40;;;0.90;;
65393;SDS011;52002;49.760;6.512;2023-12-20T00:51:59;1.00;;;0.80;;
65393;SDS011;52002;49.760;6.512;2023-12-20T00:54:24;1.10;;;0.90;;
65393;SDS011;52002;49.760;6.512;2023-12-20T00:56:50;1.10;;;0.90;;
65393;SDS011;52002;49.760;6.512;2023-12-20T00:59:16;0.70;;;0.70;;
65393;SDS011;52002;49.760;6.512;2023-12-20T01:01:43;0.90;;;0.90;;
65393;SDS011;52002;49.760;6.512;2023-12-20T01:04:08;1.30;;;0.90;;
65393;SDS011;52002;49.760;6.512;2023-12-20T01:06:34;1.40;;;0.80;;
65393;SDS011;52002;49.760;6.512;2023-12-20T01:08:59;2.80;;;1.10;;
65393;SDS011;52002;49.760;6.512;2023-12-20T01:11:24;1.90;;;1.20;;
65393;SDS011;52002;49.760;6.512;2023-12-20T01:13:49;1.70;;;0.90;;
65393;SDS011;52002;49.760;6.512;2023-12-20T01:16:15;2.20;;;0.90;;
65393;SDS011;52002;49.760;6.512;2023-12-20T01:18:40;4.30;;;1.80;;
65393;SDS011;52002;49.760;6.512;2023-12-20T01:21:06;4.00;;;2.20;;
65393;SDS011;52002;49.760;6.512;2023-12-20T01:23:32;3.00;;;1.90;;
65393;SDS011;52002;49.760;6.512;2023-12-20T01:25:58;1.60;;;1.40;;
65393;SDS011;52002;49.760;6.512;2023-12-20T01:28:27;1.50;;;1.10;;
65393;SDS011;52002;49.760;6.512;2023-12-20T01:30:53;2.20;;;1.30;;
65393;SDS011;52002;49.760;6.512;2023-12-20T01:33:19;2.00;;;1.40;;
65393;SDS011;52002;49.760;6.512;2023-12-20T01:35:44;3.20;;;1.70;;
65393;SDS011;52002;49.760;6.512;2023-12-20T01:38:09;3.30;;;1.40;;
65393;SDS011;52002;49.760;6.512;2023-12-20T01:40:34;2.40;;;1.50;;
65393;SDS011;52002;49.760;6.512;2023-12-20T01:43:01;1.50;;;1.10;;
65393;SDS011;52002;49.760;6.512;2023-12-20T01:45:27;0.80;;;0.80;;
65393;SDS011;52002;49.760;6.512;2023-12-20T01:47:53;2.10;;;1.70;;
65393;SDS011;52002;49.760;6.512;2023-12-20T01:50:20;3.70;;;2.20;;
65393;SDS011;52002;49.760;6.512;2023-12-20T01:52:46;1.80;;;1.50;;
65393;SDS011;52002;49.760;6.512;2023-12-20T01:55:12;2.00;;;1.60;;
65393;SDS011;52002;49.760;6.512;2023-12-20T01:57:41;1.30;;;1.20;;
65393;SDS011;52002;49.760;6.512;2023-12-20T02:00:08;1.60;;;1.30;;
65393;SDS011;52002;49.760;6.512;2023-12-20T02:02:36;2.30;;;1.60;;
65393;SDS011;52002;49.760;6.512;2023-12-20T02:05:04;3.80;;;1.90;;
65393;SDS011;52002;49.760;6.512;2023-12-20T02:07:30;2.70;;;1.50;;
65393;SDS011;52002;49.760;6.512;2023-12-20T02:09:56;2.60;;;1.90;;
65393;SDS011;52002;49.760;6.512;2023-12-20T02:12:25;2.10;;;1.50;;
65393;SDS011;52002;49.760;6.512;2023-12-20T02:14:51;1.20;;;1.10;;
65393;SDS011;52002;49.760;6.512;2023-12-20T02:17:17;1.40;;;1.10;;
65393;SDS011;52002;49.760;6.512;2023-12-20T02:19:43;1.00;;;0.90;;
65393;SDS011;52002;49.760;6.512;2023-12-20T02:22:11;1.10;;;1.00;;
65393;SDS011;52002;49.760;6.512;2023-12-20T02:24:37;1.10;;;1.00;;
65393;SDS011;52002;49.760;6.512;2023-12-20T02:27:04;1.90;;;1.30;;
65393;SDS011;52002;49.760;6.512;2023-12-20T02:29:32;5.00;;;1.10;;
65393;SDS011;52002;49.760;6.512;2023-12-20T02:32:01;4.60;;;1.60;;
65393;SDS011;52002;49.760;6.512;2023-12-20T02:34:27;6.80;;;4.00;;
65393;SDS011;52002;49.760;6.512;2023-12-20T02:36:52;2.40;;;2.10;;
65393;SDS011;52002;49.760;6.512;2023-12-20T02:39:18;6.50;;;1.70;;
65393;SDS011;52002;49.760;6.512;2023-12-20T02:41:44;2.00;;;1.50;;
65393;SDS011;52002;49.760;6.512;2023-12-20T02:44:09;3.70;;;2.20;;
65393;SDS011;52002;49.760;6.512;2023-12-20T02:46:35;2.30;;;1.80;;
65393;SDS011;52002;49.760;6.512;2023-12-20T02:49:00;4.30;;;2.40;;
65393;SDS011;52002;49.760;6.512;2023-12-20T02:51:25;4.80;;;2.50;;
65393;SDS011;52002;49.760;6.512;2023-12-20T02:53:51;3.40;;;1.80;;
65393;SDS011;52002;49.760;6.512;2023-12-20T02:56:16;1.90;;;1.20;;
65393;SDS011;52002;49.760;6.512;2023-12-20T02:58:41;1.10;;;0.90;;
65393;SDS011;52002;49.760;6.512;2023-12-20T03:01:07;1.50;;;1.30;;
65393;SDS011;52002;49.760;6.512;2023-12-20T03:03:32;0.70;;;0.70;;
65393;SDS011;52002;49.760;6.512;2023-12-20T03:05:58;0.90;;;0.80;;
65393;SDS011;52002;49.760;6.512;2023-12-20T03:08:23;1.60;;;0.80;;
65393;SDS011;52002;49.760;6.512;2023-12-20T03:10:49;2.30;;;0.90;;
65393;SDS011;52002;49.760;6.512;2023-12-20T03:13:15;1.80;;;1.60;;
65393;SDS011;52002;49.760;6.512;2023-12-20T03:15:40;1.50;;;1.30;;
65393;SDS011;52002;49.760;6.512;2023-12-20T03:18:06;4.30;;;1.40;;
65393;SDS011;52002;49.760;6.512;2023-12-20T03:20:31;2.20;;;1.20;;
65393;SDS011;52002;49.760;6.512;2023-12-20T03:23:00;4.40;;;1.20;;
65393;SDS011;52002;49.760;6.512;2023-12-20T03:25:26;1.20;;;1.10;;
65393;SDS011;52002;49.760;6.512;2023-12-20T03:27:52;2.10;;;1.10;;
65393;SDS011;52002;49.760;6.512;2023-12-20T03:30:17;2.40;;;0.90;;
65393;SDS011;52002;49.760;6.512;2023-12-20T03:32:43;0.90;;;0.90;;
65393;SDS011;52002;49.760;6.512;2023-12-20T03:35:09;3.00;;;1.20;;
65393;SDS011;52002;49.760;6.512;2023-12-20T03:37:34;0.90;;;0.90;;
65393;SDS011;52002;49.760;6.512;2023-12-20T03:40:00;5.40;;;1.60;;
65393;SDS011;52002;49.760;6.512;2023-12-20T03:42:26;1.90;;;1.00;;
65393;SDS011;52002;49.760;6.512;2023-12-20T03:44:51;2.20;;;1.20;;
65393;SDS011;52002;49.760;6.512;2023-12-20T03:47:16;3.40;;;1.20;;
65393;SDS011;52002;49.760;6.512;2023-12-20T03:49:42;2.00;;;1.10;;
65393;SDS011;52002;49.760;6.512;2023-12-20T03:52:07;3.20;;;1.10;;
65393;SDS011;52002;49.760;6.512;2023-12-20T03:54:33;4.00;;;1.10;;
65393;SDS011;52002;49.760;6.512;2023-12-20T03:57:00;2.40;;;1.20;;
65393;SDS011;52002;49.760;6.512;2023-12-20T03:59:25;3.10;;;1.20;;
65393;SDS011;52002;49.760;6.512;2023-12-20T04:01:50;3.60;;;1.70;;
65393;SDS011;52002;49.760;6.512;2023-12-20T04:04:16;5.20;;;1.40;;
65393;SDS011;52002;49.760;6.512;2023-12-20T04:06:41;3.00;;;1.00;;
65393;SDS011;52002;49.760;6.512;2023-12-20T04:09:07;2.70;;;1.00;;
65393;SDS011;52002;49.760;6.512;2023-12-20T04:11:34;4.90;;;1.30;;
65393;SDS011;52002;49.760;6.512;2023-12-20T04:13:59;4.10;;;1.10;;
65393;SDS011;52002;49.760;6.512;2023-12-20T04:16:26;4.10;;;1.20;;
65393;SDS011;52002;49.760;6.512;2023-12-20T04:18:51;5.10;;;0.90;;
65393;SDS011;52002;49.760;6.512;2023-12-20T04:21:17;3.80;;;0.80;;
65393;SDS011;52002;49.760;6.512;2023-12-20T04:23:43;4.70;;;1.00;;
65393;SDS011;52002;49.760;6.512;2023-12-20T04:26:08;3.70;;;1.00;;
65393;SDS011;52002;49.760;6.512;2023-12-20T04:28:34;3.40;;;0.90;;
65393;SDS011;52002;49.760;6.512;2023-12-20T04:30:59;5.40;;;1.10;;
65393;SDS011;52002;49.760;6.512;2023-12-20T04:33:25;6.60;;;1.10;;
65393;SDS011;52002;49.760;6.512;2023-12-20T04:35:50;6.30;;;1.20;;
65393;SDS011;52002;49.760;6.512;2023-12-20T04:38:16;4.10;;;1.20;;
65393;SDS011;52002;49.760;6.512;2023-12-20T04:40:41;2.50;;;1.40;;
65393;SDS011;52002;49.760;6.512;2023-12-20T04:43:07;4.00;;;1.00;;
65393;SDS011;52002;49.760;6.512;2023-12-20T04:45:34;3.20;;;1.00;;
65393;SDS011;52002;49.760;6.512;2023-12-20T04:47:59;2.40;;;1.10;;
65393;SDS011;52002;49.760;6.512;2023-12-20T04:50:25;8.30;;;1.30;;
65393;SDS011;52002;49.760;6.512;2023-12-20T04:52:50;5.80;;;2.40;;
65393;SDS011;52002;49.760;6.512;2023-12-20T04:55:16;7.40;;;4.50;;
65393;SDS011;52002;49.760;6.512;2023-12-20T04:57:41;9.80;;;4.60;;
65393;SDS011;52002;49.760;6.512;2023-12-20T05:00:08;9.60;;;3.70;;
65393;SDS011;52002;49.760;6.512;2023-12-20T05:02:34;8.90;;;3.80;;
65393;SDS011;52002;49.760;6.512;2023-12-20T05:05:00;5.80;;;2.60;;
65393;SDS011;52002;49.760;6.512;2023-12-20T05:07:26;7.80;;;3.10;;
65393;SDS011;52002;49.760;6.512;2023-12-20T05:09:51;9.50;;;3.00;;
65393;SDS011;52002;49.760;6.512;2023-12-20T05:12:16;3.20;;;1.90;;
65393;SDS011;52002;49.760;6.512;2023-12-20T05:14:42;9.90;;;2.10;;
65393;SDS011;52002;49.760;6.512;2023-12-20T05:17:07;2.90;;;1.30;;
65393;SDS011;52002;49.760;6.512;2023-12-20T05:19:33;4.40;;;1.50;;
65393;SDS011;52002;49.760;6.512;2023-12-20T05:22:00;2.30;;;1.50;;
65393;SDS011;52002;49.760;6.512;2023-12-20T05:24:27;7.20;;;1.70;;
65393;SDS011;52002;49.760;6.512;2023-12-20T05:26:52;9.00;;;1.40;;
65393;SDS011;52002;49.760;6.512;2023-12-20T05:29:18;5.80;;;1.60;;
65393;SDS011;52002;49.760;6.512;2023-12-20T05:31:43;3.60;;;1.10;;
65393;SDS011;52002;49.760;6.512;2023-12-20T05:34:08;2.40;;;0.90;;
65393;SDS011;52002;49.760;6.512;2023-12-20T05:36:34;6.60;;;1.70;;
65393;SDS011;52002;49.760;6.512;2023-12-20T05:39:00;2.20;;;1.20;;
65393;SDS011;52002;49.760;6.512;2023-12-20T05:41:25;2.80;;;1.00;;
65393;SDS011;52002;49.760;6.512;2023-12-20T05:43:51;3.60;;;1.30;;
65393;SDS011;52002;49.760;6.512;2023-12-20T05:46:16;5.80;;;1.50;;
65393;SDS011;52002;49.760;6.512;2023-12-20T05:48:41;5.50;;;1.50;;
65393;SDS011;52002;49.760;6.512;2023-12-20T05:51:07;3.50;;;1.20;;
65393;SDS011;52002;49.760;6.512;2023-12-20T05:53:33;5.30;;;1.90;;
65393;SDS011;52002;49.760;6.512;2023-12-20T05:55:58;7.10;;;1.40;;
65393;SDS011;52002;49.760;6.512;2023-12-20T05:58:24;8.50;;;1.50;;
65393;SDS011;52002;49.760;6.512;2023-12-20T06:00:50;5.30;;;1.40;;
65393;SDS011;52002;49.760;6.512;2023-12-20T06:03:15;5.50;;;1.30;;
65393;SDS011;52002;49.760;6.512;2023-12-20T06:05:40;3.60;;;1.20;;
65393;SDS011;52002;49.760;6.512;2023-12-20T06:08:06;9.30;;;1.50;;
65393;SDS011;52002;49.760;6.512;2023-12-20T06:10:31;3.00;;;1.30;;
65393;SDS011;52002;49.760;6.512;2023-12-20T06:12:57;11.60;;;2.00;;
65393;SDS011;52002;49.760;6.512;2023-12-20T06:15:24;10.00;;;1.90;;
65393;SDS011;52002;49.760;6.512;2023-12-20T06:17:49;6.60;;;1.70;;
65393;SDS011;52002;49.760;6.512;2023-12-20T06:20:15;4.90;;;1.60;;
65393;SDS011;52002;49.760;6.512;2023-12-20T06:22:40;11.30;;;2.30;;
65393;SDS011;52002;49.760;6.512;2023-12-20T06:25:06;11.40;;;1.80;;
65393;SDS011;52002;49.760;6.512;2023-12-20T06:27:32;3.00;;;1.30;;
65393;SDS011;52002;49.760;6.512;2023-12-20T06:29:57;8.90;;;1.40;;
65393;SDS011;52002;49.760;6.512;2023-12-20T06:32:24;5.30;;;1.30;;
65393;SDS011;52002;49.760;6.512;2023-12-20T06:34:49;3.30;;;1.10;;
65393;SDS011;52002;49.760;6.512;2023-12-20T06:37:15;5.60;;;1.10;;
65393;SDS011;52002;49.760;6.512;2023-12-20T06:39:40;6.60;;;1.50;;
65393;SDS011;52002;49.760;6.512;2023-12-20T06:42:06;8.50;;;1.70;;
65393;SDS011;52002;49.760;6.512;2023-12-20T06:44:31;4.80;;;1.60;;
65393;SDS011;52002;49.760;6.512;2023-12-20T06:46:57;6.80;;;1.30;;
65393;SDS011;52002;49.760;6.512;2023-12-20T06:49:23;3.80;;;1.20;;
65393;SDS011;52002;49.760;6.512;2023-12-20T06:51:48;8.40;;;1.70;;
65393;SDS011;52002;49.760;6.512;2023-12-20T06:54:14;28.60;;;7.40;;
65393;SDS011;52002;49.760;6.512;2023-12-20T06:56:39;20.30;;;6.00;;
65393;SDS011;52002;49.760;6.512;2023-12-20T06:59:06;11.40;;;3.00;;
65393;SDS011;52002;49.760;6.512;2023-12-20T07:01:31;14.60;;;1.90;;
65393;SDS011;52002;49.760;6.512;2023-12-20T07:03:56;10.10;;;2.80;;
65393;SDS011;52002;49.760;6.512;2023-12-20T07:06:22;10.60;;;4.00;;
65393;SDS011;52002;49.760;6.512;2023-12-20T07:08:48;7.00;;;1.90;;
65393;SDS011;52002;49.760;6.512;2023-12-20T07:11:13;11.40;;;3.30;;
65393;SDS011;52002;49.760;6.512;2023-12-20T07:13:38;13.70;;;2.10;;
65393;SDS011;52002;49.760;6.512;2023-12-20T07:16:04;11.60;;;2.00;;
65393;SDS011;52002;49.760;6.512;2023-12-20T07:18:29;12.00;;;2.40;;
65393;SDS011;52002;49.760;6.512;2023-12-20T07:20:55;14.30;;;4.80;;
65393;SDS011;52002;49.760;6.512;2023-12-20T07:23:20;6.20;;;2.30;;
65393;SDS011;52002;49.760;6.512;2023-12-20T07:25:46;8.00;;;2.40;;
65393;SDS011;52002;49.760;6.512;2023-12-20T07:28:12;11.50;;;2.40;;
65393;SDS011;52002;49.760;6.512;2023-12-20T07:30:37;10.50;;;2.10;;
65393;SDS011;52002;49.760;6.512;2023-12-20T07:33:03;14.40;;;3.20;;
65393;SDS011;52002;49.760;6.512;2023-12-20T07:35:28;10.80;;;3.70;;
65393;SDS011;52002;49.760;6.512;2023-12-20T07:37:54;14.90;;;4.10;;
65393;SDS011;52002;49.760;6.512;2023-12-20T07:40:19;13.50;;;3.80;;
65393;SDS011;52002;49.760;6.512;2023-12-20T07:42:45;13.90;;;5.10;;
65393;SDS011;52002;49.760;6.512;2023-12-20T07:45:10;16.80;;;5.80;;
65393;SDS011;52002;49.760;6.512;2023-12-20T07:47:36;19.60;;;6.10;;
65393;SDS011;52002;49.760;6.512;2023-12-20T07:50:02;12.80;;;4.80;;
65393;SDS011;52002;49.760;6.512;2023-12-20T07:52:28;44.00;;;15.10;;
65393;SDS011;52002;49.760;6.512;2023-12-20T07:54:54;55.00;;;18.90;;
65393;SDS011;52002;49.760;6.512;2023-12-20T07:57:20;131.10;;;51.20;;
65393;SDS011;52002;49.760;6.512;2023-12-20T07:59:46;21.70;;;8.20;;
65393;SDS011;52002;49.760;6.512;2023-12-20T08:02:11;14.40;;;4.60;;
65393;SDS011;52002;49.760;6.512;2023-12-20T08:04:37;24.80;;;6.10;;
65393;SDS011;52002;49.760;6.512;2023-12-20T08:07:02;114.70;;;30.10;;
65393;SDS011;52002;49.760;6.512;2023-12-20T08:09:28;57.50;;;14.30;;
65393;SDS011;52002;49.760;6.512;2023-12-20T08:11:54;42.60;;;12.50;;
65393;SDS011;52002;49.760;6.512;2023-12-20T08:14:19;36.50;;;12.80;;
65393;SDS011;52002;49.760;6.512;2023-12-20T08:16:44;72.40;;;29.40;;
65393;SDS011;52002;49.760;6.512;2023-12-20T08:19:10;55.50;;;23.70;;
65393;SDS011;52002;49.760;6.512;2023-12-20T08:21:35;55.90;;;23.60;;
65393;SDS011;52002;49.760;6.512;2023-12-20T08:24:00;28.40;;;7.60;;
65393;SDS011;52002;49.760;6.512;2023-12-20T08:26:26;41.60;;;16.40;;
65393;SDS011;52002;49.760;6.512;2023-12-20T08:28:51;30.90;;;10.90;;
65393;SDS011;52002;49.760;6.512;2023-12-20T08:31:17;17.80;;;7.80;;
65393;SDS011;52002;49.760;6.512;2023-12-20T08:33:44;27.10;;;11.00;;
65393;SDS011;52002;49.760;6.512;2023-12-20T08:36:10;8.50;;;4.00;;
65393;SDS011;52002;49.760;6.512;2023-12-20T08:38:36;9.60;;;2.80;;
65393;SDS011;52002;49.760;6.512;2023-12-20T08:41:02;8.60;;;2.50;;
65393;SDS011;52002;49.760;6.512;2023-12-20T08:43:30;9.00;;;2.10;;
65393;SDS011;52002;49.760;6.512;2023-12-20T08:45:56;8.00;;;2.40;;
65393;SDS011;52002;49.760;6.512;2023-12-20T08:48:22;5.90;;;2.30;;
65393;SDS011;52002;49.760;6.512;2023-12-20T08:50:47;12.60;;;2.50;;
65393;SDS011;52002;49.760;6.512;2023-12-20T08:53:15;11.90;;;3.30;;
65393;SDS011;52002;49.760;6.512;2023-12-20T08:55:41;10.90;;;2.30;;
65393;SDS011;52002;49.760;6.512;2023-12-20T08:58:07;10.90;;;2.60;;
65393;SDS011;52002;49.760;6.512;2023-12-20T09:00:33;7.70;;;2.90;;
65393;SDS011;52002;49.760;6.512;2023-12-20T09:02:59;13.90;;;3.30;;
65393;SDS011;52002;49.760;6.512;2023-12-20T09:05:24;13.80;;;3.10;;
65393;SDS011;52002;49.760;6.512;2023-12-20T09:07:50;12.20;;;2.70;;
65393;SDS011;52002;49.760;6.512;2023-12-20T09:10:16;11.00;;;2.80;;
65393;SDS011;52002;49.760;6.512;2023-12-20T09:12:41;11.60;;;2.60;;
65393;SDS011;52002;49.760;6.512;2023-12-20T09:15:07;8.90;;;2.60;;
65393;SDS011;52002;49.760;6.512;2023-12-20T09:17:33;8.80;;;2.50;;
65393;SDS011;52002;49.760;6.512;2023-12-20T09:19:58;11.00;;;2.60;;
65393;SDS011;52002;49.760;6.512;2023-12-20T09:22:25;8.70;;;2.30;;
65393;SDS011;52002;49.760;6.512;2023-12-20T09:24:50;13.30;;;2.80;;
65393;SDS011;52002;49.760;6.512;2023-12-20T09:27:16;9.50;;;3.10;;
65393;SDS011;52002;49.760;6.512;2023-12-20T09:29:41;9.90;;;2.70;;
65393;SDS011;52002;49.760;6.512;2023-12-20T09:32:07;16.50;;;2.90;;
65393;SDS011;52002;49.760;6.512;2023-12-20T09:34:33;11.30;;;2.70;;
65393;SDS011;52002;49.760;6.512;2023-12-20T09:36:58;9.20;;;2.30;;
65393;SDS011;52002;49.760;6.512;2023-12-20T09:39:24;12.20;;;2.30;;
65393;SDS011;52002;49.760;6.512;2023-12-20T09:42:03;7.90;;;2.50;;
65393;SDS011;52002;49.760;6.512;2023-12-20T09:44:29;11.50;;;2.20;;
65393;SDS011;52002;49.760;6.512;2023-12-20T09:46:56;8.10;;;2.30;;
65393;SDS011;52002;49.760;6.512;2023-12-20T09:49:22;8.00;;;2.20;;
65393;SDS011;52002;49.760;6.512;2023-12-20T09:51:50;14.30;;;2.70;;
65393;SDS011;52002;49.760;6.512;2023-12-20T09:54:16;10.40;;;2.90;;
65393;SDS011;52002;49.760;6.512;2023-12-20T09:56:43;12.20;;;2.90;;
65393;SDS011;52002;49.760;6.512;2023-12-20T09:59:09;8.10;;;2.80;;
65393;SDS011;52002;49.760;6.512;2023-12-20T10:01:35;17.10;;;3.10;;
65393;SDS011;52002;49.760;6.512;2023-12-20T10:04:05;9.80;;;2.50;;
65393;SDS011;52002;49.760;6.512;2023-12-20T10:06:36;10.00;;;2.30;;
65393;SDS011;52002;49.760;6.512;2023-12-20T10:09:01;18.10;;;3.00;;
65393;SDS011;52002;49.760;6.512;2023-12-20T10:11:27;10.80;;;2.60;;
65393;SDS011;52002;49.760;6.512;2023-12-20T10:13:58;11.20;;;2.50;;
65393;SDS011;52002;49.760;6.512;2023-12-20T10:16:28;11.60;;;2.60;;
65393;SDS011;52002;49.760;6.512;2023-12-20T10:18:54;14.50;;;2.60;;
65393;SDS011;52002;49.760;6.512;2023-12-20T10:21:20;12.80;;;2.30;;
65393;SDS011;52002;49.760;6.512;2023-12-20T10:23:47;13.20;;;2.70;;
65393;SDS011;52002;49.760;6.512;2023-12-20T10:26:36;6.70;;;1.90;;
65393;SDS011;52002;49.760;6.512;2023-12-20T10:29:01;9.80;;;1.90;;
65393;SDS011;52002;49.760;6.512;2023-12-20T10:31:30;12.50;;;2.20;;
65393;SDS011;52002;49.760;6.512;2023-12-20T10:33:57;8.40;;;2.00;;
65393;SDS011;52002;49.760;6.512;2023-12-20T10:36:27;10.80;;;2.80;;
65393;SDS011;52002;49.760;6.512;2023-12-20T10:38:56;21.80;;;6.50;;
65393;SDS011;52002;49.760;6.512;2023-12-20T10:41:26;19.00;;;4.20;;
65393;SDS011;52002;49.760;6.512;2023-12-20T10:44:03;9.30;;;2.20;;
65393;SDS011;52002;49.760;6.512;2023-12-20T10:46:33;20.40;;;3.20;;
65393;SDS011;52002;49.760;6.512;2023-12-20T10:48:59;6.60;;;2.00;;
65393;SDS011;52002;49.760;6.512;2023-12-20T10:51:27;7.70;;;1.70;;
65393;SDS011;52002;49.760;6.512;2023-12-20T10:53:55;11.30;;;2.50;;
65393;SDS011;52002;49.760;6.512;2023-12-20T10:56:21;13.30;;;3.20;;
65393;SDS011;52002;49.760;6.512;2023-12-20T10:58:48;14.20;;;4.30;;
65393;SDS011;52002;49.760;6.512;2023-12-20T11:01:15;27.80;;;7.70;;
65393;SDS011;52002;49.760;6.512;2023-12-20T11:03:44;29.50;;;7.60;;
65393;SDS011;52002;49.760;6.512;2023-12-20T11:11:37;10.30;;;2.10;;
65393;SDS011;52002;49.760;6.512;2023-12-20T11:14:23;14.40;;;3.50;;
65393;SDS011;52002;49.760;6.512;2023-12-20T11:17:05;13.70;;;3.20;;
65393;SDS011;52002;49.760;6.512;2023-12-20T11:22:21;16.20;;;4.40;;
65393;SDS011;52002;49.760;6.512;2023-12-20T11:24:48;21.20;;;4.10;;
65393;SDS011;52002;49.760;6.512;2023-12-20T11:27:14;9.00;;;2.50;;
65393;SDS011;52002;49.760;6.512;2023-12-20T11:29:39;7.80;;;2.80;;
65393;SDS011;52002;49.760;6.512;2023-12-20T11:34:57;9.20;;;1.90;;
65393;SDS011;52002;49.760;6.512;2023-12-20T11:37:31;11.80;;;2.60;;
65393;SDS011;52002;49.760;6.512;2023-12-20T11:40:07;15.50;;;2.00;;
65393;SDS011;52002;49.760;6.512;2023-12-20T11:42:39;11.10;;;2.40;;
65393;SDS011;52002;49.760;6.512;2023-12-20T11:45:08;8.80;;;1.70;;
65393;SDS011;52002;49.760;6.512;2023-12-20T11:47:40;12.00;;;2.50;;
65393;SDS011;52002;49.760;6.512;2023-12-20T11:50:06;12.50;;;2.30;;
65393;SDS011;52002;49.760;6.512;2023-12-20T11:52:31;11.20;;;1.70;;
65393;SDS011;52002;49.760;6.512;2023-12-20T11:54:57;11.90;;;2.10;;
65393;SDS011;52002;49.760;6.512;2023-12-20T11:57:22;7.70;;;1.70;;
65393;SDS011;52002;49.760;6.512;2023-12-20T11:59:48;10.60;;;1.70;;
65393;SDS011;52002;49.760;6.512;2023-12-20T12:02:14;11.20;;;1.90;;
65393;SDS011;52002;49.760;6.512;2023-12-20T12:04:43;9.70;;;1.80;;
65393;SDS011;52002;49.760;6.512;2023-12-20T12:07:08;6.20;;;1.90;;
65393;SDS011;52002;49.760;6.512;2023-12-20T12:09:34;9.10;;;1.70;;
65393;SDS011;52002;49.760;6.512;2023-12-20T12:11:59;9.00;;;2.10;;
65393;SDS011;52002;49.760;6.512;2023-12-20T12:14:25;9.90;;;2.60;;
65393;SDS011;52002;49.760;6.512;2023-12-20T12:16:50;7.90;;;1.70;;
65393;SDS011;52002;49.760;6.512;2023-12-20T12:19:24;8.90;;;2.80;;
65393;SDS011;52002;49.760;6.512;2023-12-20T12:24:47;9.50;;;3.10;;
65393;SDS011;52002;49.760;6.512;2023-12-20T12:27:13;12.70;;;5.50;;
65393;SDS011;52002;49.760;6.512;2023-12-20T12:29:39;11.10;;;3.40;;
65393;SDS011;52002;49.760;6.512;2023-12-20T12:32:06;8.20;;;2.40;;
65393;SDS011;52002;49.760;6.512;2023-12-20T12:34:32;6.40;;;1.80;;
65393;SDS011;52002;49.760;6.512;2023-12-20T12:37:01;9.90;;;2.90;;
65393;SDS011;52002;49.760;6.512;2023-12-20T12:39:29;10.90;;;2.60;;
65393;SDS011;52002;49.760;6.512;2023-12-20T12:41:55;9.40;;;2.40;;
65393;SDS011;52002;49.760;6.512;2023-12-20T12:44:22;7.00;;;2.50;;
65393;SDS011;52002;49.760;6.512;2023-12-20T12:46:50;7.10;;;2.10;;
65393;SDS011;52002;49.760;6.512;2023-12-20T12:49:16;8.40;;;2.70;;
65393;SDS011;52002;49.760;6.512;2023-12-20T12:51:42;11.60;;;2.60;;
65393;SDS011;52002;49.760;6.512;2023-12-20T12:54:08;8.90;;;2.20;;
65393;SDS011;52002;49.760;6.512;2023-12-20T12:56:35;11.60;;;2.40;;
65393;SDS011;52002;49.760;6.512;2023-12-20T12:59:01;10.20;;;2.00;;
65393;SDS011;52002;49.760;6.512;2023-12-20T13:01:27;10.90;;;2.00;;
65393;SDS011;52002;49.760;6.512;2023-12-20T13:03:52;9.80;;;2.70;;
65393;SDS011;52002;49.760;6.512;2023-12-20T13:06:17;6.50;;;1.80;;
65393;SDS011;52002;49.760;6.512;2023-12-20T13:08:43;8.20;;;1.50;;
65393;SDS011;52002;49.760;6.512;2023-12-20T13:11:09;8.70;;;2.00;;
65393;SDS011;52002;49.760;6.512;2023-12-20T13:13:34;7.40;;;1.80;;
65393;SDS011;52002;49.760;6.512;2023-12-20T13:16:00;6.10;;;1.60;;
65393;SDS011;52002;49.760;6.512;2023-12-20T13:18:26;12.50;;;2.50;;
65393;SDS011;52002;49.760;6.512;2023-12-20T13:20:51;13.40;;;2.00;;
65393;SDS011;52002;49.760;6.512;2023-12-20T13:23:16;6.30;;;1.50;;
65393;SDS011;52002;49.760;6.512;2023-12-20T13:25:43;5.40;;;1.50;;
65393;SDS011;52002;49.760;6.512;2023-12-20T13:28:10;10.80;;;1.50;;
65393;SDS011;52002;49.760;6.512;2023-12-20T13:30:36;7.60;;;1.70;;
65393;SDS011;52002;49.760;6.512;2023-12-20T13:33:01;9.00;;;2.40;;
65393;SDS011;52002;49.760;6.512;2023-12-20T13:35:27;7.70;;;1.60;;
65393;SDS011;52002;49.760;6.512;2023-12-20T13:37:52;8.80;;;2.00;;
65393;SDS011;52002;49.760;6.512;2023-12-20T13:40:18;6.40;;;2.00;;
65393;SDS011;52002;49.760;6.512;2023-12-20T13:42:43;7.00;;;1.60;;
65393;SDS011;52002;49.760;6.512;2023-12-20T13:45:10;9.70;;;1.10;;
65393;SDS011;52002;49.760;6.512;2023-12-20T13:47:36;12.20;;;3.30;;
65393;SDS011;52002;49.760;6.512;2023-12-20T13:50:02;4.80;;;1.50;;
65393;SDS011;52002;49.760;6.512;2023-12-20T13:52:29;4.90;;;1.90;;
65393;SDS011;52002;49.760;6.512;2023-12-20T13:54:54;6.30;;;1.70;;
65393;SDS011;52002;49.760;6.512;2023-12-20T13:57:19;9.40;;;1.60;;
65393;SDS011;52002;49.760;6.512;2023-12-20T13:59:45;10.20;;;2.10;;
65393;SDS011;52002;49.760;6.512;2023-12-20T14:02:10;13.70;;;2.80;;
65393;SDS011;52002;49.760;6.512;2023-12-20T14:04:36;6.90;;;2.10;;
65393;SDS011;52002;49.760;6.512;2023-12-20T14:07:01;8.20;;;1.50;;
65393;SDS011;52002;49.760;6.512;2023-12-20T14:09:26;8.50;;;2.00;;
65393;SDS011;52002;49.760;6.512;2023-12-20T14:11:52;18.60;;;4.70;;
65393;SDS011;52002;49.760;6.512;2023-12-20T14:14:17;10.40;;;2.80;;
65393;SDS011;52002;49.760;6.512;2023-12-20T14:16:44;13.30;;;3.80;;
65393;SDS011;52002;49.760;6.512;2023-12-20T14:19:10;18.60;;;5.40;;
65393;SDS011;52002;49.760;6.512;2023-12-20T14:21:36;11.50;;;3.40;;
65393;SDS011;52002;49.760;6.512;2023-12-20T14:24:01;8.50;;;2.20;;
65393;SDS011;52002;49.760;6.512;2023-12-20T14:26:29;11.40;;;2.70;;
65393;SDS011;52002;49.760;6.512;2023-12-20T14:28:54;8.60;;;2.80;;
65393;SDS011;52002;49.760;6.512;2023-12-20T14:31:20;9.30;;;2.00;;
65393;SDS011;52002;49.760;6.512;2023-12-20T14:33:45;10.80;;;2.40;;
65393;SDS011;52002;49.760;6.512;2023-12-20T14:36:11;7.10;;;1.90;;
65393;SDS011;52002;49.760;6.512;2023-12-20T14:38:36;11.60;;;2.90;;
65393;SDS011;52002;49.760;6.512;2023-12-20T14:41:02;9.90;;;2.20;;
65393;SDS011;52002;49.760;6.512;2023-12-20T14:43:29;8.30;;;2.30;;
65393;SDS011;52002;49.760;6.512;2023-12-20T14:45:54;10.10;;;2.60;;
65393;SDS011;52002;49.760;6.512;2023-12-20T14:48:20;14.70;;;1.90;;
65393;SDS011;52002;49.760;6.512;2023-12-20T14:50:46;14.10;;;3.10;;